Time;durP1;ratioP1;P1;durP2;ratioP2;P2;SDS_P1;SDS_P2;PMS_P1;PMS_P2;Temp;Humidity;BMP_temperature;BMP_pressure;BME280_temperature;BME280_humidity;BME280_pressure;Samples;Min_cycle;Max_cycle;Signal;HPM_P1;HPM_P2
2022/12/27 00:02:16;;;;;;;12.40;1.40;;;3.40;99.90;;;;;;5078026;28;20401;-73
2022/12/27 00:04:41;;;;;;;11.43;1.08;;;3.30;99.90;;;;;;5082497;28;20416;-72
2022/12/27 00:07:07;;;;;;;8.35;1.00;;;3.40;99.90;;;;;;5040875;28;20115;-72
2022/12/27 00:09:33;;;;;;;8.45;1.83;;;3.70;99.90;;;;;;5048898;28;20503;-72
2022/12/27 00:11:58;;;;;;;9.88;1.13;;;3.40;99.90;;;;;;5048787;28;20076;-73
2022/12/27 00:14:24;;;;;;;10.85;1.52;;;4.70;99.90;;;;;;5049231;28;20039;-72
2022/12/27 00:16:49;;;;;;;7.70;1.88;;;4.90;99.90;;;;;;5049951;28;20041;-72
2022/12/27 00:19:15;;;;;;;9.80;1.27;;;3.50;99.90;;;;;;5048288;28;20061;-73
2022/12/27 00:21:41;;;;;;;7.03;1.75;;;3.50;99.90;;;;;;5081904;28;20083;-73
2022/12/27 00:24:07;;;;;;;12.18;1.95;;;3.40;99.90;;;;;;5031663;28;20481;-73
2022/12/27 00:26:34;;;;;;;28.15;9.68;;;3.70;99.90;;;;;;5049926;28;20068;-73
2022/12/27 00:29:00;;;;;;;14.68;1.40;;;3.50;99.90;;;;;;5049053;28;20047;-72
2022/12/27 00:31:28;;;;;;;13.18;1.70;;;3.50;99.90;;;;;;5049593;28;20044;-72
2022/12/27 00:33:57;;;;;;;7.15;1.45;;;4.10;99.90;;;;;;5047887;28;20045;-72
2022/12/27 00:36:25;;;;;;;8.55;1.20;;;3.60;99.90;;;;;;5030731;28;20045;-72
2022/12/27 00:38:52;;;;;;;7.70;1.08;;;3.60;99.90;;;;;;5031515;28;20051;-72
2022/12/27 00:41:18;;;;;;;12.32;1.35;;;3.60;99.90;;;;;;5048045;28;20440;-72
2022/12/27 00:43:44;;;;;;;7.07;0.93;;;3.60;99.90;;;;;;5049085;28;20409;-72
2022/12/27 00:46:10;;;;;;;6.50;1.25;;;3.60;99.90;;;;;;5048932;28;20049;-73
2022/12/27 00:48:36;;;;;;;11.35;1.30;;;3.70;99.90;;;;;;5049436;28;20037;-72
2022/12/27 00:51:11;;;;;;;7.85;1.00;;;4.90;99.90;;;;;;5030472;28;20061;-72
2022/12/27 00:53:36;;;;;;;7.88;1.50;;;3.70;99.90;;;;;;5031648;28;20044;-72
2022/12/27 00:56:14;;;;;;;10.00;1.45;;;4.10;99.90;;;;;;5047639;28;20370;-73
2022/12/27 00:58:39;;;;;;;12.40;1.30;;;3.70;99.90;;;;;;5048140;28;20029;-72
2022/12/27 01:01:08;;;;;;;9.20;1.50;;;3.70;99.90;;;;;;5026345;28;20558;-73
2022/12/27 01:03:33;;;;;;;11.07;1.20;;;3.70;99.90;;;;;;5046942;28;20041;-73
2022/12/27 01:06:07;;;;;;;11.20;1.38;;;4.40;99.90;;;;;;5047790;28;20044;-73
2022/12/27 01:08:33;;;;;;;10.73;1.37;;;3.80;99.90;;;;;;5047927;28;20041;-73
2022/12/27 01:10:58;;;;;;;6.85;1.33;;;4.20;99.90;;;;;;5047019;28;20345;-73
2022/12/27 01:13:24;;;;;;;7.85;0.93;;;3.80;99.90;;;;;;5048442;28;20094;-72
2022/12/27 01:15:50;;;;;;;10.15;1.02;;;3.90;99.90;;;;;;5041014;28;20385;-72
2022/12/27 01:18:16;;;;;;;12.80;1.02;;;4.00;99.90;;;;;;5040767;28;20121;-72
2022/12/27 01:20:41;;;;;;;9.13;1.52;;;5.50;99.90;;;;;;5046651;28;20124;-72
2022/12/27 01:23:07;;;;;;;7.63;1.50;;;5.30;99.90;;;;;;5048085;28;20060;-73
2022/12/27 01:25:33;;;;;;;9.52;1.15;;;4.20;99.90;;;;;;5048661;28;20037;-73
2022/12/27 01:27:58;;;;;;;9.25;1.70;;;4.20;99.90;;;;;;5047442;28;20052;-73
2022/12/27 01:30:24;;;;;;;11.85;1.65;;;4.20;99.90;;;;;;5030757;28;20381;-72
2022/12/27 01:32:49;;;;;;;8.43;1.50;;;4.70;99.90;;;;;;5042867;28;20037;-73
2022/12/27 01:35:15;;;;;;;6.15;1.35;;;4.30;99.90;;;;;;5039903;28;20060;-72
2022/12/27 01:37:41;;;;;;;10.02;1.95;;;4.40;99.90;;;;;;5047623;28;20037;-73
2022/12/27 01:40:07;;;;;;;7.97;1.00;;;4.50;99.90;;;;;;5046069;28;20436;-73
2022/12/27 01:42:51;;;;;;;12.48;1.48;;;4.50;99.90;;;;;;5048256;28;20582;-73
2022/12/27 01:45:26;;;;;;;11.10;1.53;;;6.00;99.90;;;;;;5080378;28;20049;-73
2022/12/27 01:48:18;;;;;;;12.77;1.38;;;4.50;99.90;;;;;;5014088;28;20378;-73
2022/12/27 01:50:49;;;;;;;10.23;1.33;;;4.40;99.90;;;;;;5047613;28;20041;-73
2022/12/27 01:53:16;;;;;;;11.85;1.92;;;4.40;99.90;;;;;;5062292;28;20041;-74
2022/12/27 01:55:50;;;;;;;11.60;2.28;;;4.30;99.90;;;;;;5029076;28;20448;-73
2022/12/27 01:58:40;;;;;;;11.20;2.00;;;4.30;99.90;;;;;;5046742;28;20380;-73
2022/12/27 02:01:11;;;;;;;13.95;1.80;;;4.30;99.90;;;;;;5035506;28;20040;-73
2022/12/27 02:03:39;;;;;;;12.93;1.80;;;4.40;99.90;;;;;;5048431;28;20037;-73
2022/12/27 02:06:08;;;;;;;12.20;1.35;;;4.20;99.90;;;;;;5030087;28;20044;-73
2022/12/27 02:08:49;;;;;;;9.57;1.67;;;4.10;99.90;;;;;;5029408;28;20080;-73
2022/12/27 02:11:49;;;;;;;8.50;1.55;;;4.20;99.90;;;;;;5046041;28;20128;-73
2022/12/27 02:14:05;;;;;;;11.23;1.30;;;4.30;99.90;;;;;;5046129;28;20087;-73
2022/12/27 02:16:30;;;;;;;10.77;1.30;;;4.20;99.90;;;;;;5046695;28;20033;-73
2022/12/27 02:18:56;;;;;;;11.07;1.67;;;4.10;99.90;;;;;;5025975;28;20115;-73
2022/12/27 02:21:25;;;;;;;10.30;1.52;;;4.50;99.90;;;;;;5058065;28;20079;-73
2022/12/27 02:24:13;;;;;;;12.23;1.63;;;4.10;99.90;;;;;;5046269;28;20041;-73
2022/12/27 02:26:50;;;;;;;10.45;1.73;;;4.10;99.90;;;;;;5015811;28;20056;-74
2022/12/27 02:29:16;;;;;;;12.48;1.52;;;4.00;99.90;;;;;;5046044;28;20037;-73
2022/12/27 02:32:03;;;;;;;5.68;1.45;;;4.00;99.90;;;;;;5079775;28;20555;-73
2022/12/27 02:34:38;;;;;;;18.95;3.60;;;4.00;99.90;;;;;;5047863;28;20128;-73
2022/12/27 02:37:09;;;;;;;11.65;1.95;;;4.00;99.90;;;;;;5045645;28;20050;-73
2022/12/27 02:39:38;;;;;;;12.90;1.65;;;3.90;99.90;;;;;;5046648;28;20037;-73
2022/12/27 02:54:35;;;;;;;16.42;1.65;;;4.00;99.90;;;;;;5026386;28;20049;-73
2022/12/27 02:57:23;;;;;;;13.80;1.20;;;4.10;99.90;;;;;;5070783;28;20480;-73
2022/12/27 03:15:53;;;;;;;15.43;1.52;;;4.30;99.90;;;;;;5049738;28;20045;-73
2022/12/27 03:17:55;;;;;;;13.52;2.08;;;6.00;99.90;;;;;;5047740;28;20110;-73
2022/12/27 03:25:54;;;;;;;10.80;1.35;;;4.20;99.90;;;;;;5050248;28;20564;-73
2022/12/27 03:34:39;;;;;;;9.23;1.35;;;4.30;99.90;;;;;;5082163;28;20044;-73
2022/12/27 03:40:04;;;;;;;10.55;1.85;;;4.30;99.90;;;;;;5049153;28;20045;-73
2022/12/27 03:45:20;;;;;;;9.80;1.35;;;4.30;99.90;;;;;;5048194;28;20048;-73
2022/12/27 03:47:52;;;;;;;10.10;1.30;;;4.30;99.90;;;;;;5049586;28;20068;-73
2022/12/27 03:50:29;;;;;;;10.38;1.25;;;4.30;99.90;;;;;;5032892;28;20112;-73
2022/12/27 03:53:00;;;;;;;12.07;1.23;;;4.40;99.90;;;;;;5031603;28;20048;-74
2022/12/27 03:55:25;;;;;;;6.68;1.08;;;5.50;99.90;;;;;;5049333;28;20040;-73
2022/12/27 03:57:52;;;;;;;10.73;1.40;;;4.60;99.90;;;;;;5049453;28;20044;-74
2022/12/27 04:00:18;;;;;;;10.90;1.23;;;5.00;99.90;;;;;;5045442;28;20041;-73
2022/12/27 04:02:43;;;;;;;13.63;2.40;;;5.50;99.90;;;;;;5046691;28;20070;-74
2022/12/27 04:05:10;;;;;;;8.35;1.42;;;4.90;99.90;;;;;;5048595;28;20406;-73
2022/12/27 04:07:36;;;;;;;12.45;0.95;;;4.30;99.90;;;;;;5049908;28;20084;-74
2022/12/27 04:34:41;;;;;;;6.32;1.20;;;5.20;99.90;;;;;;5046109;28;20049;-74
2022/12/27 04:37:12;;;;;;;8.65;1.20;;;4.10;99.90;;;;;;5042493;28;20048;-73
2022/12/27 04:39:38;;;;;;;9.50;1.40;;;4.10;99.90;;;;;;5048481;28;20033;-74
2022/12/27 04:55:59;;;;;;;10.90;1.30;;;5.20;99.90;;;;;;5046937;28;20052;-73
2022/12/27 04:58:25;;;;;;;11.77;2.00;;;4.00;99.90;;;;;;5047723;28;20552;-74
2022/12/27 05:03:36;;;;;;;9.38;1.23;;;5.60;99.90;;;;;;5047610;28;20049;-74
2022/12/27 05:06:03;;;;;;;8.75;1.70;;;4.10;99.90;;;;;;5047504;28;20044;-74
2022/12/27 05:13:58;;;;;;;5.88;1.20;;;4.50;99.90;;;;;;5047341;28;20345;-75
2022/12/27 05:16:24;;;;;;;9.65;1.13;;;4.30;99.90;;;;;;5030780;28;20111;-74
2022/12/27 05:18:51;;;;;;;10.55;1.38;;;4.80;99.90;;;;;;5046610;28;20068;-74
2022/12/27 05:21:17;;;;;;;6.60;1.00;;;4.60;99.90;;;;;;5047443;28;20041;-74
2022/12/27 05:26:28;;;;;;;10.75;1.58;;;5.30;99.90;;;;;;5032607;28;20041;-74
2022/12/27 05:28:56;;;;;;;9.70;1.02;;;4.10;99.90;;;;;;5031017;28;20036;-74
2022/12/27 05:31:23;;;;;;;9.15;1.17;;;5.50;99.90;;;;;;5048288;28;20091;-74
2022/12/27 05:33:50;;;;;;;9.27;1.20;;;4.00;99.90;;;;;;5048884;28;20045;-75
2022/12/27 05:36:16;;;;;;;6.15;1.20;;;5.30;99.90;;;;;;5039361;28;20029;-74
2022/12/27 05:38:42;;;;;;;10.88;1.52;;;3.90;99.90;;;;;;5030320;28;20505;-74
2022/12/27 05:41:08;;;;;;;6.05;1.02;;;3.90;99.90;;;;;;5046921;28;20041;-74
2022/12/27 05:43:34;;;;;;;9.57;2.50;;;3.90;99.90;;;;;;5030940;28;20117;-74
2022/12/27 05:46:15;;;;;;;5.47;1.27;;;3.80;99.90;;;;;;5043142;28;20120;-75
2022/12/27 05:48:41;;;;;;;7.28;1.05;;;3.90;99.90;;;;;;5046358;28;20459;-74
2022/12/27 05:51:10;;;;;;;11.75;1.40;;;3.80;99.90;;;;;;5077952;28;20077;-75
2022/12/27 05:53:35;;;;;;;9.82;2.28;;;3.90;99.90;;;;;;5046217;28;20037;-74
2022/12/27 05:56:01;;;;;;;7.00;1.13;;;3.90;99.90;;;;;;5046268;28;20798;-74
2022/12/27 05:58:27;;;;;;;8.35;1.60;;;4.40;99.90;;;;;;5030702;28;20040;-74
2022/12/27 06:00:53;;;;;;;14.32;2.38;;;3.80;99.90;;;;;;5047449;28;20432;-74
2022/12/27 06:03:19;;;;;;;14.35;1.50;;;5.30;99.90;;;;;;5029968;28;20048;-74
2022/12/27 06:05:45;;;;;;;12.68;2.08;;;3.80;99.90;;;;;;5029522;28;20393;-74
2022/12/27 06:08:11;;;;;;;8.30;1.60;;;3.80;99.90;;;;;;5046134;28;20094;-74
2022/12/27 06:10:37;;;;;;;15.32;1.90;;;5.60;99.90;;;;;;5048341;28;20431;-74
2022/12/27 06:13:03;;;;;;;8.35;1.75;;;3.90;99.90;;;;;;5045771;28;20614;-74
2022/12/27 06:15:30;;;;;;;13.52;1.92;;;3.80;99.90;;;;;;5048169;28;20531;-74
2022/12/27 06:17:59;;;;;;;14.43;1.42;;;3.70;99.90;;;;;;5030181;28;20124;-75
2022/12/27 06:20:25;;;;;;;9.15;1.38;;;3.70;99.90;;;;;;5029075;28;20055;-73
2022/12/27 06:22:51;;;;;;;11.00;2.17;;;3.70;99.90;;;;;;5047729;28;20117;-73
2022/12/27 06:25:17;;;;;;;12.60;2.17;;;3.70;99.90;;;;;;5080009;28;20473;-75
2022/12/27 06:27:42;;;;;;;12.73;2.05;;;3.60;99.90;;;;;;5045961;28;20049;-74
2022/12/27 06:30:10;;;;;;;14.07;1.98;;;3.60;99.90;;;;;;5047427;28;20047;-74
2022/12/27 06:32:36;;;;;;;11.98;1.92;;;3.60;99.90;;;;;;5047678;28;20041;-75
2022/12/27 06:35:02;;;;;;;8.48;1.55;;;3.50;99.90;;;;;;5045024;28;20088;-74
2022/12/27 06:37:29;;;;;;;13.85;1.80;;;3.50;99.90;;;;;;5046263;28;20048;-74
2022/12/27 06:39:55;;;;;;;9.88;1.65;;;3.50;99.90;;;;;;5034136;28;20562;-74
2022/12/27 06:42:21;;;;;;;8.05;1.58;;;3.50;99.90;;;;;;5082948;28;20052;-73
2022/12/27 06:44:47;;;;;;;11.20;1.73;;;3.50;99.90;;;;;;5067250;28;20029;-73
2022/12/27 06:47:12;;;;;;;6.20;1.17;;;3.40;99.90;;;;;;5033458;28;20103;-73
2022/12/27 06:49:38;;;;;;;7.50;1.00;;;3.70;99.90;;;;;;5050149;28;20025;-73
2022/12/27 06:52:04;;;;;;;11.93;1.98;;;3.50;99.90;;;;;;5083397;28;20052;-73
2022/12/27 06:54:29;;;;;;;9.38;1.65;;;3.50;99.90;;;;;;5049760;28;20560;-73
2022/12/27 06:56:55;;;;;;;15.30;2.10;;;3.40;99.90;;;;;;5049614;28;20448;-73
2022/12/27 06:59:21;;;;;;;13.18;1.40;;;5.30;99.90;;;;;;5051440;28;20663;-73
2022/12/27 07:01:47;;;;;;;7.50;1.30;;;3.40;99.90;;;;;;5050728;28;20036;-73
2022/12/27 07:04:13;;;;;;;12.18;1.63;;;3.50;99.90;;;;;;5065480;28;20041;-73
2022/12/27 07:06:38;;;;;;;9.27;1.42;;;3.40;99.90;;;;;;5033387;28;20110;-74
2022/12/27 07:09:04;;;;;;;13.60;2.30;;;3.30;99.90;;;;;;5082188;28;20060;-74
2022/12/27 07:11:35;;;;;;;16.90;1.83;;;3.30;99.90;;;;;;5051324;28;20428;-73
2022/12/27 07:14:01;;;;;;;11.90;1.85;;;3.40;99.90;;;;;;5050620;28;20477;-73
2022/12/27 07:16:29;;;;;;;10.73;1.30;;;3.40;99.90;;;;;;5050917;28;20029;-73
2022/12/27 07:18:56;;;;;;;11.40;2.13;;;3.50;99.90;;;;;;5049492;28;20102;-73
2022/12/27 07:21:23;;;;;;;17.05;2.10;;;3.40;99.90;;;;;;5032844;28;20572;-73
2022/12/27 07:23:50;;;;;;;14.50;1.35;;;3.40;99.90;;;;;;5050111;28;20405;-73
2022/12/27 07:26:24;;;;;;;11.70;1.60;;;3.40;99.90;;;;;;5032891;28;20075;-73
2022/12/27 07:28:53;;;;;;;7.78;1.50;;;3.40;99.90;;;;;;5083032;28;20056;-73
2022/12/27 07:31:22;;;;;;;10.27;1.95;;;3.40;99.90;;;;;;5048783;28;20032;-73
2022/12/27 07:33:48;;;;;;;16.25;2.13;;;3.40;99.90;;;;;;5049789;28;20049;-74
2022/12/27 07:36:20;;;;;;;17.90;3.50;;;3.40;99.90;;;;;;5048565;28;20041;-73
2022/12/27 07:38:46;;;;;;;9.07;3.38;;;3.40;99.90;;;;;;5032543;28;20048;-74
2022/12/27 07:41:12;;;;;;;18.50;3.40;;;3.40;99.90;;;;;;5032091;28;20040;-73
2022/12/27 07:43:38;;;;;;;12.68;2.17;;;5.30;99.90;;;;;;5049775;28;20033;-73
2022/12/27 07:46:05;;;;;;;14.40;1.55;;;4.70;99.90;;;;;;5031223;28;20048;-73
2022/12/27 07:48:31;;;;;;;12.27;2.05;;;3.30;99.90;;;;;;5050805;28;20049;-73
2022/12/27 07:50:56;;;;;;;13.18;1.75;;;3.30;99.90;;;;;;5047816;28;20147;-74
2022/12/27 07:53:22;;;;;;;10.65;2.25;;;3.20;99.90;;;;;;5048049;28;20119;-75
2022/12/27 07:55:49;;;;;;;6.97;1.80;;;2.90;99.90;;;;;;5050431;28;20045;-74
2022/12/27 07:58:16;;;;;;;15.70;1.75;;;3.30;99.90;;;;;;5048158;28;20052;-74
2022/12/27 08:00:44;;;;;;;12.82;2.17;;;3.30;99.90;;;;;;5047439;28;20393;-74
2022/12/27 08:03:10;;;;;;;11.50;1.35;;;3.30;99.90;;;;;;5048618;28;20048;-73
2022/12/27 08:05:35;;;;;;;12.13;2.03;;;3.30;99.90;;;;;;5031663;28;20084;-74
2022/12/27 08:08:01;;;;;;;7.55;1.60;;;3.30;99.90;;;;;;5048787;28;20041;-74
2022/12/27 08:10:27;;;;;;;12.43;3.08;;;3.20;99.90;;;;;;5048982;28;20040;-74
2022/12/27 08:12:53;;;;;;;15.25;2.08;;;3.20;99.90;;;;;;5081822;28;20106;-73
2022/12/27 08:15:18;;;;;;;20.95;2.83;;;3.60;99.90;;;;;;5049672;28;20084;-74
2022/12/27 08:17:45;;;;;;;12.32;2.25;;;3.20;99.90;;;;;;5082474;28;20060;-74
2022/12/27 08:20:13;;;;;;;15.43;3.10;;;3.10;99.90;;;;;;5031020;28;20057;-74
2022/12/27 08:22:39;;;;;;;9.82;1.65;;;3.10;99.90;;;;;;5025717;28;20053;-73
2022/12/27 08:25:06;;;;;;;12.45;2.05;;;3.20;99.90;;;;;;5031434;28;20374;-74
2022/12/27 08:27:31;;;;;;;15.10;1.92;;;3.20;99.90;;;;;;5031366;28;20033;-74
2022/12/27 08:29:57;;;;;;;19.92;2.58;;;3.40;99.90;;;;;;5050255;28;20041;-74
2022/12/27 08:32:23;;;;;;;11.48;1.98;;;3.10;99.90;;;;;;5049565;28;20136;-74
2022/12/27 08:34:48;;;;;;;14.43;1.88;;;4.60;99.90;;;;;;5049103;28;20044;-74
2022/12/27 08:37:14;;;;;;;12.65;2.40;;;2.70;99.90;;;;;;5047743;28;20119;-74
2022/12/27 08:39:40;;;;;;;13.10;2.63;;;4.70;99.90;;;;;;5043089;28;20056;-74
2022/12/27 08:42:10;;;;;;;10.50;2.03;;;3.20;99.90;;;;;;5048514;28;20048;-74
2022/12/27 08:44:35;;;;;;;12.27;2.10;;;3.20;99.90;;;;;;5049476;28;20040;-74
2022/12/27 08:47:03;;;;;;;11.25;2.20;;;3.20;99.90;;;;;;5031077;28;20043;-74
2022/12/27 08:49:29;;;;;;;11.60;1.92;;;4.00;99.90;;;;;;5047635;28;20049;-74
2022/12/27 08:51:54;;;;;;;14.43;2.55;;;3.20;99.90;;;;;;5048958;28;20082;-74
2022/12/27 08:54:20;;;;;;;15.70;2.97;;;4.60;99.90;;;;;;5047564;28;20822;-73
2022/12/27 08:56:46;;;;;;;10.95;2.85;;;3.10;99.90;;;;;;5080903;28;20099;-73
2022/12/27 08:59:12;;;;;;;16.67;2.42;;;3.20;99.90;;;;;;5048828;28;20088;-73
2022/12/27 09:01:38;;;;;;;15.00;2.42;;;3.20;99.90;;;;;;5045882;28;20118;-73
2022/12/27 09:04:04;;;;;;;18.13;2.78;;;4.50;99.90;;;;;;5048320;28;20083;-73
2022/12/27 09:06:29;;;;;;;12.43;1.60;;;3.10;99.90;;;;;;5049220;28;20065;-73
2022/12/27 09:08:55;;;;;;;14.05;1.60;;;3.10;99.90;;;;;;5046920;28;20045;-73
2022/12/27 09:11:27;;;;;;;13.63;2.97;;;3.10;99.90;;;;;;5048815;28;20152;-74
2022/12/27 09:13:53;;;;;;;12.10;2.08;;;3.80;99.90;;;;;;5047220;28;20064;-74
2022/12/27 09:16:22;;;;;;;14.95;2.45;;;3.20;99.90;;;;;;5046856;28;20076;-74
2022/12/27 09:18:51;;;;;;;17.25;2.35;;;4.90;99.90;;;;;;5049100;28;20557;-74
2022/12/27 09:21:18;;;;;;;8.85;1.83;;;4.60;99.90;;;;;;5047238;28;20553;-74
2022/12/27 09:23:45;;;;;;;11.32;2.10;;;3.20;99.90;;;;;;5046868;28;20477;-75
2022/12/27 09:26:17;;;;;;;12.98;1.90;;;4.50;99.90;;;;;;5048637;28;20094;-75
2022/12/27 09:28:43;;;;;;;11.35;2.15;;;3.30;99.90;;;;;;5048028;28;20045;-75
2022/12/27 09:31:10;;;;;;;10.13;1.75;;;3.00;99.90;;;;;;5026219;28;20506;-75
2022/12/27 09:33:36;;;;;;;14.82;2.40;;;3.40;99.90;;;;;;5047437;28;20508;-75
2022/12/27 09:36:09;;;;;;;15.45;4.57;;;3.30;99.90;;;;;;5046737;28;20123;-74
2022/12/27 09:38:36;;;;;;;12.45;2.58;;;3.50;99.90;;;;;;5046684;28;20535;-75
2022/12/27 09:41:26;;;;;;;10.25;2.22;;;3.50;99.90;;;;;;5046542;28;20456;-75
2022/12/27 09:44:07;;;;;;;10.73;2.25;;;3.60;99.90;;;;;;5039904;28;20116;-74
2022/12/27 09:46:41;;;;;;;21.55;2.50;;;3.60;99.90;;;;;;5029825;28;20463;-74
2022/12/27 09:49:14;;;;;;;5.30;2.03;;;4.20;99.90;;;;;;5046681;28;20076;-74
2022/12/27 09:51:49;;;;;;;15.90;2.30;;;3.70;99.90;;;;;;5038394;28;20033;-75
2022/12/27 09:54:24;;;;;;;8.88;2.28;;;4.50;99.90;;;;;;5046555;28;20060;-75
2022/12/27 09:56:51;;;;;;;14.15;3.17;;;3.80;99.90;;;;;;5048116;28;20056;-75
2022/12/27 09:59:31;;;;;;;10.35;3.90;;;3.80;99.90;;;;;;5045764;28;20415;-75
2022/12/27 10:01:58;;;;;;;13.63;2.60;;;3.80;99.90;;;;;;5041633;28;20072;-75
2022/12/27 10:04:23;;;;;;;10.90;1.58;;;3.80;99.90;;;;;;5047748;28;20037;-75
2022/12/27 10:06:49;;;;;;;10.25;2.40;;;3.90;99.90;;;;;;5046156;28;20052;-76
2022/12/27 10:09:18;;;;;;;12.77;1.88;;;4.50;99.90;;;;;;5080142;28;20131;-74
2022/12/27 10:11:46;;;;;;;12.60;2.03;;;3.90;99.90;;;;;;5073981;28;20075;-75
2022/12/27 10:14:27;;;;;;;13.80;2.20;;;4.00;99.90;;;;;;5041010;28;20469;-75
2022/12/27 10:17:19;;;;;;;14.32;1.73;;;4.10;99.90;;;;;;5074634;28;20043;-74
2022/12/27 10:20:09;;;;;;;9.75;1.80;;;4.10;99.90;;;;;;5038060;28;20059;-74
2022/12/27 10:22:53;;;;;;;13.07;2.72;;;4.10;99.90;;;;;;5046811;28;20048;-75
2022/12/27 10:25:22;;;;;;;14.98;2.72;;;4.20;99.90;;;;;;5046368;28;20052;-75
2022/12/27 10:27:52;;;;;;;16.98;2.33;;;4.30;99.90;;;;;;5043499;28;20160;-74
2022/12/27 10:30:20;;;;;;;11.30;2.03;;;5.70;99.90;;;;;;5046142;28;20056;-74
2022/12/27 10:32:47;;;;;;;14.52;2.95;;;4.40;99.90;;;;;;5046115;28;20041;-75
2022/12/27 10:35:16;;;;;;;17.42;2.75;;;4.40;99.90;;;;;;5041004;28;20037;-75
2022/12/27 10:37:42;;;;;;;10.65;2.28;;;4.60;99.90;;;;;;5048043;28;20063;-74
2022/12/27 10:40:18;;;;;;;13.00;1.52;;;4.70;99.90;;;;;;5046597;28;20053;-74
2022/12/27 10:42:51;;;;;;;17.42;2.65;;;6.30;99.90;;;;;;5046911;28;20033;-75
2022/12/27 10:45:38;;;;;;;13.90;2.80;;;6.00;99.90;;;;;;5028181;28;20052;-75
2022/12/27 10:48:24;;;;;;;11.48;1.80;;;4.80;99.90;;;;;;5041243;28;20049;-74
2022/12/27 10:50:58;;;;;;;18.90;3.67;;;5.20;99.90;;;;;;5039889;28;20120;-75
2022/12/27 10:53:37;;;;;;;11.10;1.92;;;4.90;99.90;;;;;;5047242;28;20041;-75
2022/12/27 10:56:27;;;;;;;10.15;1.75;;;4.90;99.90;;;;;;5022504;28;20049;-75
2022/12/27 10:59:08;;;;;;;8.55;2.30;;;4.90;99.90;;;;;;5059745;28;20045;-74
2022/12/27 11:01:34;;;;;;;5.65;1.70;;;4.90;99.90;;;;;;5044842;28;20048;-75
2022/12/27 11:04:22;;;;;;;8.25;1.98;;;5.00;99.90;;;;;;5047491;28;20036;-74
2022/12/27 11:06:50;;;;;;;15.35;2.65;;;5.00;99.90;;;;;;5048111;28;20068;-74
2022/12/27 11:09:30;;;;;;;17.85;2.92;;;5.00;99.90;;;;;;5079056;28;20037;-74
2022/12/27 11:12:14;;;;;;;11.15;2.00;;;5.00;99.90;;;;;;5055735;28;20053;-74
2022/12/27 11:15:00;;;;;;;8.45;2.00;;;5.00;99.90;;;;;;5046316;28;20044;-74
2022/12/27 11:17:26;;;;;;;7.85;2.13;;;6.20;99.90;;;;;;5029371;28;20072;-74
2022/12/27 11:19:52;;;;;;;13.82;2.88;;;5.10;99.90;;;;;;5029177;28;20505;-74
2022/12/27 11:22:18;;;;;;;13.00;2.55;;;4.90;99.90;;;;;;5045114;28;20060;-75
2022/12/27 11:24:50;;;;;;;14.38;1.98;;;5.00;99.90;;;;;;5029503;28;20029;-75
2022/12/27 11:27:27;;;;;;;12.95;2.03;;;5.00;99.90;;;;;;5033034;28;20048;-74
2022/12/27 11:29:57;;;;;;;13.30;2.58;;;5.10;99.90;;;;;;5031795;28;20052;-74
2022/12/27 11:32:23;;;;;;;11.82;2.10;;;5.00;99.90;;;;;;5049402;28;20401;-75
2022/12/27 11:34:52;;;;;;;13.68;2.70;;;5.20;99.90;;;;;;5048977;28;20044;-75
2022/12/27 11:37:21;;;;;;;15.80;3.15;;;5.30;99.90;;;;;;5048866;28;20492;-75
2022/12/27 11:39:53;;;;;;;13.52;2.20;;;5.30;99.90;;;;;;5049429;28;20052;-74
2022/12/27 11:42:37;;;;;;;8.98;1.70;;;5.40;99.90;;;;;;5049156;28;20137;-74
2022/12/27 11:45:16;;;;;;;10.90;2.47;;;5.40;99.90;;;;;;5028703;28;20140;-74
2022/12/27 11:48:13;;;;;;;14.98;2.25;;;5.50;99.90;;;;;;5032925;28;20045;-74
2022/12/27 11:51:16;;;;;;;10.20;2.00;;;5.50;99.90;;;;;;5046710;28;20044;-75
2022/12/27 11:54:29;;;;;;;10.27;1.70;;;5.60;99.90;;;;;;5032264;28;20049;-75
2022/12/27 11:57:34;;;;;;;8.07;2.10;;;5.50;99.90;;;;;;5043727;28;20063;-75
2022/12/27 12:00:18;;;;;;;17.42;2.70;;;5.50;99.90;;;;;;5022914;28;20099;-75
2022/12/27 12:03:11;;;;;;;13.07;2.47;;;5.40;99.90;;;;;;5079888;28;20068;-74
2022/12/27 12:06:14;;;;;;;9.88;1.88;;;5.40;99.90;;;;;;5064388;28;20041;-75
2022/12/27 12:08:57;;;;;;;17.63;2.65;;;5.40;99.90;;;;;;5050625;28;20344;-75
2022/12/27 12:11:48;;;;;;;13.35;1.83;;;5.40;99.90;;;;;;5043271;28;20123;-75
2022/12/27 12:14:44;;;;;;;9.73;1.60;;;5.40;99.90;;;;;;5042090;28;20480;-75
2022/12/27 12:17:39;;;;;;;14.30;2.47;;;5.40;99.90;;;;;;5057971;28;20052;-75
2022/12/27 12:20:27;;;;;;;7.25;2.00;;;5.30;99.90;;;;;;5074474;28;20080;-75
2022/12/27 12:23:23;;;;;;;11.32;2.15;;;5.20;99.90;;;;;;5048915;28;20056;-74
2022/12/27 12:26:24;;;;;;;15.88;2.70;;;5.50;99.90;;;;;;5047973;28;20052;-75
2022/12/27 12:29:27;;;;;;;8.43;1.88;;;5.60;99.90;;;;;;5048689;28;20041;-75
2022/12/27 12:32:21;;;;;;;14.57;2.42;;;5.50;99.90;;;;;;5031011;28;20075;-74
2022/12/27 12:35:16;;;;;;;13.18;2.33;;;5.50;99.90;;;;;;5047443;28;20460;-74
2022/12/27 12:37:44;;;;;;;12.05;2.35;;;5.50;99.90;;;;;;5048366;28;20517;-75
2022/12/27 12:40:23;;;;;;;11.25;1.77;;;5.40;99.90;;;;;;5045402;28;20044;-74
2022/12/27 12:42:54;;;;;;;8.73;2.03;;;5.50;99.90;;;;;;5031780;28;20343;-74
2022/12/27 12:45:30;;;;;;;12.73;2.58;;;5.50;99.90;;;;;;5048712;28;20110;-74
2022/12/27 12:48:12;;;;;;;11.40;1.90;;;5.40;99.90;;;;;;5049151;28;20041;-74
2022/12/27 12:51:10;;;;;;;14.52;2.38;;;5.40;99.90;;;;;;5081717;28;20718;-74
2022/12/27 12:54:13;;;;;;;16.58;2.38;;;5.50;99.90;;;;;;5033694;28;20053;-75
2022/12/27 12:56:57;;;;;;;12.23;2.85;;;5.50;99.90;;;;;;5038525;28;20057;-75
2022/12/27 12:59:53;;;;;;;18.50;5.13;;;5.40;99.90;;;;;;5047536;28;20052;-74
2022/12/27 13:02:53;;;;;;;11.57;2.42;;;5.50;99.90;;;;;;5042104;28;20048;-74
2022/12/27 13:05:24;;;;;;;7.38;1.88;;;5.40;99.90;;;;;;5043347;28;20044;-74
2022/12/27 13:08:17;;;;;;;9.95;2.17;;;5.50;99.90;;;;;;5063492;28;20049;-74
2022/12/27 13:10:46;;;;;;;14.77;4.22;;;5.50;99.90;;;;;;5047583;28;20055;-74
2022/12/27 13:13:32;;;;;;;15.07;2.88;;;6.70;99.90;;;;;;5046741;28;20041;-74
2022/12/27 13:16:15;;;;;;;21.83;2.88;;;5.50;99.90;;;;;;5048792;28;20207;-74
2022/12/27 13:18:52;;;;;;;13.50;3.08;;;5.50;99.90;;;;;;5047691;28;20045;-74
2022/12/27 13:21:24;;;;;;;16.15;3.13;;;5.50;99.90;;;;;;5040302;28;20088;-74
2022/12/27 13:24:16;;;;;;;10.45;2.40;;;5.50;99.90;;;;;;5045215;28;20132;-74
2022/12/27 13:26:58;;;;;;;12.32;2.72;;;5.50;99.90;;;;;;5046682;28;20067;-74
2022/12/27 13:29:39;;;;;;;13.05;2.63;;;5.50;99.90;;;;;;5047101;28;20060;-74
2022/12/27 13:32:23;;;;;;;12.00;2.55;;;5.60;99.90;;;;;;5038530;28;20123;-74
2022/12/27 13:35:13;;;;;;;12.98;3.08;;;5.60;99.90;;;;;;5042215;28;20057;-74
2022/12/27 13:38:03;;;;;;;10.65;2.20;;;5.60;99.90;;;;;;5033827;28;20072;-75
2022/12/27 13:40:54;;;;;;;12.02;2.58;;;5.60;99.90;;;;;;5057061;28;20219;-74
2022/12/27 13:43:49;;;;;;;15.48;2.75;;;5.50;99.90;;;;;;5046582;28;20426;-72
2022/12/27 13:46:30;;;;;;;;;;;5.60;99.90;;;;;;5051903;28;20608;-72
2022/12/27 13:49:11;;;;;;;19.15;2.65;;;5.60;99.90;;;;;;5048620;28;19952;-75
2022/12/27 13:51:45;;;;;;;15.90;2.35;;;5.60;99.90;;;;;;5065537;28;20366;-74
2022/12/27 13:54:29;;;;;;;12.60;3.42;;;5.60;99.90;;;;;;5041785;28;20124;-74
2022/12/27 13:57:34;;;;;;;11.35;2.78;;;5.50;99.90;;;;;;5044638;28;20401;-74
2022/12/27 14:00:08;;;;;;;14.75;3.00;;;5.50;99.90;;;;;;5047970;28;20508;-75
2022/12/27 14:02:37;;;;;;;10.27;2.60;;;5.60;99.90;;;;;;5082900;28;20036;-75
2022/12/27 14:05:33;;;;;;;16.67;3.53;;;5.70;99.90;;;;;;5069849;28;20055;-75
2022/12/27 14:08:13;;;;;;;29.25;4.63;;;5.50;99.90;;;;;;5086764;28;20070;-74
2022/12/27 14:10:48;;;;;;;7.97;3.00;;;5.60;99.90;;;;;;5041223;28;20654;-75
2022/12/27 14:13:32;;;;;;;21.10;3.72;;;5.50;99.90;;;;;;5082882;28;20052;-74
2022/12/27 14:16:26;;;;;;;13.60;3.67;;;5.50;99.90;;;;;;5041852;28;20057;-76
2022/12/27 14:19:18;;;;;;;12.70;3.65;;;5.60;99.90;;;;;;5031793;28;20501;-75
2022/12/27 14:22:11;;;;;;;14.50;3.83;;;5.60;99.90;;;;;;5032131;28;20082;-74
2022/12/27 14:24:51;;;;;;;13.45;3.53;;;5.60;99.90;;;;;;5002213;28;20064;-74
2022/12/27 14:27:39;;;;;;;20.60;3.40;;;5.70;99.90;;;;;;5047597;28;20098;-74
2022/12/27 14:30:43;;;;;;;16.45;6.05;;;5.70;99.90;;;;;;5063732;28;20404;-74
2022/12/27 14:33:31;;;;;;;18.08;5.55;;;5.70;99.90;;;;;;4995101;28;20405;-74
2022/12/27 14:36:27;;;;;;;14.15;4.05;;;5.60;99.90;;;;;;5030143;28;20044;-74
2022/12/27 14:39:11;;;;;;;13.98;4.07;;;5.70;99.90;;;;;;5047372;28;20052;-74
2022/12/27 14:42:13;;;;;;;11.63;4.07;;;5.70;99.90;;;;;;5032958;28;20061;-74
2022/12/27 14:45:13;;;;;;;17.48;4.40;;;5.70;99.90;;;;;;5075066;28;20052;-74
2022/12/27 14:48:06;;;;;;;18.35;4.60;;;5.70;99.90;;;;;;5046342;28;20365;-75
2022/12/27 14:51:04;;;;;;;12.90;4.47;;;5.70;99.90;;;;;;5040638;28;20161;-74
2022/12/27 14:53:53;;;;;;;16.65;4.43;;;5.60;99.90;;;;;;5020535;28;20323;-75
2022/12/27 14:56:32;;;;;;;12.73;4.90;;;5.60;99.90;;;;;;5024530;28;20045;-76
2022/12/27 14:59:23;;;;;;;11.38;5.07;;;5.70;99.90;;;;;;5046646;28;20076;-76